Time;durP1;ratioP1;P1;durP2;ratioP2;P2;SDS_P1;SDS_P2;PMS_P1;PMS_P2;Temp;Humidity;BMP_temperature;BMP_pressure;BME280_temperature;BME280_humidity;BME280_pressure;Samples;Min_cycle;Max_cycle;Signal;HPM_P1;HPM_P2
2021/10/30 00:01:11;;;;;;;19.37;17.47;;;9.80;99.90;;;;;;10441414;28;20268;-83
2021/10/30 00:06:14;;;;;;;18.60;16.80;;;9.80;99.90;;;;;;10426008;28;20216;-81
2021/10/30 00:11:17;;;;;;;17.33;15.73;;;9.70;99.90;;;;;;10451416;28;20260;-82
2021/10/30 00:16:21;;;;;;;19.27;17.27;;;9.70;99.90;;;;;;10429260;28;20205;-84
2021/10/30 00:21:23;;;;;;;17.20;15.60;;;9.70;99.90;;;;;;10425428;28;20739;-83
2021/10/30 00:26:25;;;;;;;15.87;14.37;;;9.60;99.90;;;;;;10425728;28;20642;-83
2021/10/30 00:31:35;;;;;;;17.23;15.47;;;9.60;99.90;;;;;;10424353;28;20715;-84
2021/10/30 00:36:37;;;;;;;16.20;14.50;;;9.60;99.90;;;;;;10427412;28;20696;-83
2021/10/30 00:41:39;;;;;;;15.60;14.13;;;9.60;99.90;;;;;;10421176;28;20283;-82
2021/10/30 00:46:44;;;;;;;16.43;14.80;;;9.60;99.90;;;;;;10434870;28;20208;-82
2021/10/30 00:51:54;;;;;;;16.73;15.10;;;9.60;99.90;;;;;;10454397;28;20228;-82
2021/10/30 00:56:57;;;;;;;14.93;13.53;;;9.60;99.90;;;;;;10454473;28;20697;-82
2021/10/30 01:02:01;;;;;;;16.63;15.03;;;9.50;99.90;;;;;;10415973;28;20251;-82
2021/10/30 01:07:04;;;;;;;15.07;13.60;;;9.50;99.90;;;;;;10418465;28;20564;-82
2021/10/30 01:12:08;;;;;;;18.30;14.97;;;9.40;99.90;;;;;;10419609;28;20236;-82
2021/10/30 01:17:12;;;;;;;15.30;13.80;;;9.40;99.90;;;;;;10435331;28;20217;-83
2021/10/30 01:22:16;;;;;;;14.73;13.43;;;9.30;99.90;;;;;;10457937;28;20663;-83
2021/10/30 01:27:19;;;;;;;13.93;12.67;;;9.20;99.90;;;;;;10450160;28;20205;-82
2021/10/30 01:32:22;;;;;;;15.50;14.07;;;9.20;99.90;;;;;;10455070;28;20304;-84
2021/10/30 01:37:25;;;;;;;14.30;12.97;;;9.20;99.90;;;;;;10437401;28;20489;-82
2021/10/30 01:42:27;;;;;;;14.60;13.20;;;9.20;99.90;;;;;;10421387;28;20635;-81
2021/10/30 01:47:29;;;;;;;14.10;12.77;;;9.20;99.90;;;;;;10410789;28;20216;-83
2021/10/30 01:52:33;;;;;;;14.97;13.47;;;9.20;99.90;;;;;;10421061;28;20229;-83
2021/10/30 01:57:35;;;;;;;15.97;14.27;;;9.10;99.90;;;;;;10437948;28;20300;-83
2021/10/30 02:02:37;;;;;;;13.70;12.40;;;9.10;99.90;;;;;;10443650;28;20256;-83
2021/10/30 02:07:41;;;;;;;14.87;13.37;;;9.10;99.90;;;;;;10448142;28;20622;-84
2021/10/30 02:12:44;;;;;;;15.70;14.30;;;9.10;99.90;;;;;;10447626;28;20236;-82
2021/10/30 02:17:46;;;;;;;15.80;14.30;;;9.10;99.90;;;;;;10429180;28;20213;-81
2021/10/30 02:22:53;;;;;;;16.27;14.80;;;9.10;99.90;;;;;;10445009;28;20283;-83
2021/10/30 02:27:55;;;;;;;15.30;13.90;;;9.10;99.90;;;;;;10428294;28;20211;-83
2021/10/30 02:32:57;;;;;;;16.80;15.20;;;9.10;99.90;;;;;;10437637;28;20217;-84
2021/10/30 02:38:00;;;;;;;16.30;14.87;;;9.10;99.90;;;;;;10426800;28;20227;-84
2021/10/30 02:43:03;;;;;;;15.27;13.90;;;9.10;99.90;;;;;;10428136;28;20312;-83
2021/10/30 02:48:06;;;;;;;15.90;14.50;;;9.00;99.90;;;;;;10440520;28;20229;-82
2021/10/30 02:53:11;;;;;;;17.33;15.60;;;9.00;99.90;;;;;;10443039;28;20211;-81
2021/10/30 02:58:13;;;;;;;17.17;15.50;;;9.00;99.90;;;;;;10442987;28;20843;-82
2021/10/30 03:03:15;;;;;;;15.97;14.57;;;9.00;99.90;;;;;;10460501;28;20279;-82
2021/10/30 03:08:19;;;;;;;17.23;15.63;;;9.10;99.90;;;;;;10425626;28;20288;-82
2021/10/30 03:13:21;;;;;;;16.90;15.33;;;9.00;99.90;;;;;;10440531;28;20252;-82
2021/10/30 03:18:23;;;;;;;17.70;15.77;;;9.00;99.90;;;;;;10437467;28;20221;-82
2021/10/30 03:23:27;;;;;;;17.93;16.23;;;8.80;99.90;;;;;;10420214;28;20336;-81
2021/10/30 03:28:29;;;;;;;16.90;15.20;;;8.90;99.90;;;;;;10423057;28;20221;-82
2021/10/30 03:33:32;;;;;;;18.10;16.20;;;8.80;99.90;;;;;;10423714;28;20208;-82
2021/10/30 03:38:35;;;;;;;17.20;15.70;;;8.80;99.90;;;;;;10423928;28;20710;-82
2021/10/30 03:43:37;;;;;;;16.03;14.50;;;8.90;99.90;;;;;;10442169;28;20320;-83
2021/10/30 03:48:39;;;;;;;15.20;13.87;;;8.90;99.90;;;;;;10439040;28;20256;-83
2021/10/30 03:53:43;;;;;;;17.10;15.50;;;8.90;99.90;;;;;;10424329;28;20217;-83
2021/10/30 03:58:45;;;;;;;16.57;14.97;;;8.90;99.90;;;;;;10441307;28;20237;-82
2021/10/30 04:03:47;;;;;;;16.37;14.77;;;8.90;99.90;;;;;;10423840;28;20239;-83
2021/10/30 04:08:51;;;;;;;16.10;14.70;;;8.80;99.90;;;;;;10440925;28;20575;-84
2021/10/30 04:13:53;;;;;;;13.00;11.90;;;8.80;99.90;;;;;;10423599;28;20566;-83
2021/10/30 04:18:57;;;;;;;16.83;15.33;;;8.80;99.90;;;;;;10440734;28;20315;-84
2021/10/30 04:24:01;;;;;;;16.63;15.03;;;8.80;99.90;;;;;;10439357;28;20228;-83
2021/10/30 04:29:06;;;;;;;15.97;14.37;;;8.80;99.90;;;;;;10423875;28;20256;-82
2021/10/30 04:34:17;;;;;;;16.10;14.60;;;8.80;99.90;;;;;;10439807;28;20211;-84
2021/10/30 04:39:21;;;;;;;17.20;15.60;;;8.80;99.90;;;;;;10418861;28;20320;-82
2021/10/30 04:44:23;;;;;;;16.63;15.30;;;8.80;99.90;;;;;;10440417;28;20259;-83
2021/10/30 04:49:25;;;;;;;17.30;15.70;;;8.80;99.90;;;;;;10425662;28;20221;-84
2021/10/30 04:54:28;;;;;;;16.97;15.53;;;8.90;99.90;;;;;;10424529;28;20248;-84
2021/10/30 04:59:31;;;;;;;17.17;15.57;;;8.90;99.90;;;;;;10424509;28;20730;-84
2021/10/30 05:04:33;;;;;;;15.57;14.00;;;9.00;99.90;;;;;;10420059;28;20287;-82
2021/10/30 05:09:36;;;;;;;17.30;15.70;;;9.00;99.90;;;;;;10436432;28;20287;-82
2021/10/30 05:14:39;;;;;;;16.43;14.73;;;9.00;99.90;;;;;;10451575;28;20652;-82
2021/10/30 05:19:41;;;;;;;15.90;14.37;;;9.00;99.90;;;;;;10414673;28;20251;-82
2021/10/30 05:24:44;;;;;;;15.50;14.10;;;8.90;99.90;;;;;;10419236;28;20232;-82
2021/10/30 05:35:03;;;;;;;16.50;14.87;;;8.80;99.90;;;;;;10435580;28;20299;-83
2021/10/30 05:40:25;;;;;;;18.83;15.97;;;8.70;99.90;;;;;;10442216;28;20232;-84
2021/10/30 05:45:27;;;;;;;16.67;15.27;;;8.70;99.90;;;;;;10420219;28;20209;-86
2021/10/30 05:50:31;;;;;;;17.67;15.97;;;8.60;99.90;;;;;;10443167;28;20229;-84
2021/10/30 05:55:35;;;;;;;18.03;16.23;;;8.50;99.90;;;;;;10420591;28;20295;-84
2021/10/30 06:00:37;;;;;;;17.27;15.60;;;8.50;99.90;;;;;;10425887;28;20279;-84
2021/10/30 06:05:39;;;;;;;18.00;16.30;;;8.50;99.90;;;;;;10425810;28;20213;-83
2021/10/30 06:10:43;;;;;;;15.53;14.17;;;8.60;99.90;;;;;;10442434;28;20249;-84
2021/10/30 06:15:45;;;;;;;19.17;17.37;;;8.60;99.90;;;;;;10425415;28;20300;-84
2021/10/30 06:20:47;;;;;;;17.20;15.60;;;8.70;99.90;;;;;;10458493;28;20303;-84
2021/10/30 06:25:53;;;;;;;15.90;14.40;;;8.70;99.90;;;;;;10427361;28;20217;-84
2021/10/30 06:30:55;;;;;;;15.63;14.30;;;8.70;99.90;;;;;;10425730;28;20229;-84
2021/10/30 06:35:57;;;;;;;15.00;13.77;;;8.80;99.90;;;;;;10442594;28;20652;-84
2021/10/30 06:41:02;;;;;;;16.23;14.73;;;8.80;99.90;;;;;;10425838;28;20726;-83
2021/10/30 06:46:04;;;;;;;16.97;15.37;;;8.80;99.90;;;;;;10424822;28;20209;-83
2021/10/30 06:51:09;;;;;;;15.83;14.23;;;8.90;99.90;;;;;;10424898;28;20229;-84
2021/10/30 06:56:12;;;;;;;17.10;15.40;;;9.00;99.90;;;;;;10440902;28;20263;-83
2021/10/30 07:01:15;;;;;;;19.87;16.27;;;9.00;99.90;;;;;;10424769;28;20689;-83
2021/10/30 07:06:18;;;;;;;16.97;15.37;;;9.00;99.90;;;;;;10424652;28;20221;-83
2021/10/30 07:11:21;;;;;;;17.17;15.57;;;9.10;99.90;;;;;;10440218;28;20229;-83
2021/10/30 07:16:24;;;;;;;16.27;14.77;;;9.20;99.90;;;;;;10433293;28;20213;-84
2021/10/30 07:21:27;;;;;;;16.47;14.97;;;9.20;99.90;;;;;;10423678;28;20237;-83
2021/10/30 07:26:31;;;;;;;16.13;14.60;;;9.30;99.90;;;;;;10433806;28;20229;-84
2021/10/30 07:31:33;;;;;;;17.67;16.07;;;9.40;99.90;;;;;;10424842;28;20259;-83
2021/10/30 07:42:46;;;;;;;14.00;12.70;;;9.70;99.90;;;;;;10818486;23;20232;-84
2021/10/30 07:47:48;;;;;;;15.57;13.50;;;9.70;99.90;;;;;;10416760;28;20685;-84
2021/10/30 07:52:51;;;;;;;17.07;14.47;;;9.80;99.90;;;;;;10374696;28;20210;-85
2021/10/30 07:57:55;;;;;;;15.40;14.07;;;9.90;99.90;;;;;;10377908;28;20237;-84
2021/10/30 08:02:57;;;;;;;15.30;14.00;;;10.00;99.90;;;;;;10384519;28;20592;-86
2021/10/30 08:07:59;;;;;;;15.23;13.70;;;10.10;99.90;;;;;;10391332;28;20209;-84
2021/10/30 08:13:09;;;;;;;15.77;14.27;;;10.20;99.90;;;;;;10380607;28;20301;-85
2021/10/30 08:18:21;;;;;;;13.17;12.07;;;10.30;99.90;;;;;;10383188;28;20230;-84
2021/10/30 08:30:04;;;;;;;15.13;13.73;;;10.50;99.90;;;;;;10387712;28;20234;-85
2021/10/30 08:35:38;;;;;;;15.30;13.90;;;10.70;99.90;;;;;;10375665;28;20210;-85
2021/10/30 08:40:49;;;;;;;13.87;12.57;;;10.80;99.90;;;;;;10372216;28;20643;-84
2021/10/30 08:45:54;;;;;;;17.23;15.73;;;11.00;99.90;;;;;;10379073;28;20234;-84
2021/10/30 08:50:59;;;;;;;15.50;14.10;;;11.00;99.90;;;;;;10368821;28;20292;-84
2021/10/30 08:56:07;;;;;;;15.13;13.80;;;11.10;99.90;;;;;;10372101;28;20202;-84
2021/10/30 09:01:13;;;;;;;15.97;14.57;;;11.20;99.90;;;;;;10368781;28;20298;-85
2021/10/30 09:06:19;;;;;;;15.60;14.20;;;11.30;99.90;;;;;;10381168;28;20221;-86
2021/10/30 09:11:27;;;;;;;14.47;13.10;;;11.40;99.90;;;;;;10364311;28;20226;-87
2021/10/30 09:16:37;;;;;;;15.50;14.00;;;11.50;99.90;;;;;;10379699;28;20233;-86
2021/10/30 09:22:21;;;;;;;15.37;13.83;;;11.70;99.90;;;;;;10370898;28;20232;-87
2021/10/30 09:27:50;;;;;;;16.60;15.00;;;11.70;99.90;;;;;;10377433;28;20224;-86
2021/10/30 09:32:59;;;;;;;17.70;16.00;;;11.80;99.90;;;;;;10370703;28;20300;-86
2021/10/30 09:38:05;;;;;;;16.47;14.90;;;11.80;99.90;;;;;;10384848;28;20655;-86
2021/10/30 09:43:26;;;;;;;16.60;15.00;;;11.90;99.90;;;;;;10399014;28;20238;-86
2021/10/30 09:48:40;;;;;;;15.53;14.10;;;11.90;99.90;;;;;;10380474;28;20256;-87
2021/10/30 09:53:56;;;;;;;16.07;14.57;;;11.90;99.90;;;;;;10361523;28;20229;-87
2021/10/30 09:59:14;;;;;;;16.30;14.70;;;12.00;99.90;;;;;;10360665;28;20226;-86
2021/10/30 10:04:30;;;;;;;17.70;15.90;;;11.90;99.90;;;;;;10375254;28;20306;-86
2021/10/30 10:09:37;;;;;;;14.80;13.40;;;11.90;99.90;;;;;;10367042;28;20241;-86
2021/10/30 10:14:42;;;;;;;19.13;15.63;;;12.00;99.90;;;;;;10365790;28;20201;-86
2021/10/30 10:19:46;;;;;;;15.90;14.50;;;12.00;99.90;;;;;;10363885;28;20321;-86
2021/10/30 10:24:50;;;;;;;15.70;14.20;;;12.00;99.90;;;;;;10370584;28;20229;-85
2021/10/30 10:29:56;;;;;;;17.17;15.37;;;12.10;99.90;;;;;;10377257;28;20228;-86
2021/10/30 10:35:07;;;;;;;19.60;15.73;;;12.10;99.90;;;;;;10372125;28;20209;-86
2021/10/30 10:40:27;;;;;;;17.50;15.90;;;12.10;99.90;;;;;;10386245;28;20321;-85
2021/10/30 10:45:48;;;;;;;18.07;16.30;;;12.20;99.90;;;;;;10393419;28;20233;-86
2021/10/30 10:50:53;;;;;;;17.03;15.43;;;12.20;99.90;;;;;;10365148;28;20236;-85
2021/10/30 10:56:13;;;;;;;17.40;15.70;;;12.30;99.90;;;;;;10379703;28;20202;-86
2021/10/30 11:01:15;;;;;;;16.73;15.20;;;12.30;99.90;;;;;;10386841;28;20225;-85
2021/10/30 11:06:32;;;;;;;17.93;16.03;;;12.30;99.90;;;;;;10383825;28;20230;-85
2021/10/30 11:11:34;;;;;;;17.80;16.03;;;12.30;99.90;;;;;;10370916;28;20600;-86
2021/10/30 11:16:41;;;;;;;17.47;15.77;;;12.30;99.90;;;;;;10356751;28;20202;-85
2021/10/30 11:21:47;;;;;;;16.50;14.83;;;12.20;99.90;;;;;;10380500;28;20248;-86
2021/10/30 11:27:01;;;;;;;17.00;15.37;;;12.30;99.90;;;;;;10373867;28;20326;-86
2021/10/30 11:32:05;;;;;;;16.23;14.60;;;12.30;99.90;;;;;;10384134;28;20226;-86
2021/10/30 11:37:09;;;;;;;16.70;15.00;;;12.30;99.90;;;;;;10383962;28;20296;-86
2021/10/30 11:42:11;;;;;;;15.23;13.83;;;12.30;99.90;;;;;;10380313;28;20288;-87
2021/10/30 11:47:16;;;;;;;17.37;15.67;;;12.40;99.90;;;;;;10395906;28;20214;-86
2021/10/30 11:52:20;;;;;;;16.77;15.17;;;12.40;99.90;;;;;;10361195;28;20237;-86
2021/10/30 11:57:22;;;;;;;16.93;15.23;;;12.40;99.90;;;;;;10379690;28;20261;-87
2021/10/30 12:02:24;;;;;;;17.63;15.93;;;12.40;99.90;;;;;;10393392;28;20218;-86
2021/10/30 12:07:29;;;;;;;17.23;15.63;;;12.30;99.90;;;;;;10389951;28;20663;-86
2021/10/30 12:12:32;;;;;;;20.77;18.63;;;12.30;99.90;;;;;;10389365;28;20772;-86
2021/10/30 12:17:37;;;;;;;21.10;19.20;;;12.20;99.90;;;;;;10376009;28;20212;-86
2021/10/30 12:22:42;;;;;;;22.07;19.90;;;12.10;99.90;;;;;;10387267;28;20960;-86
2021/10/30 12:27:53;;;;;;;23.03;20.63;;;12.10;99.90;;;;;;10366937;28;20214;-86
2021/10/30 12:33:06;;;;;;;21.00;18.70;;;12.10;99.90;;;;;;10378267;28;20632;-86
2021/10/30 12:38:14;;;;;;;22.87;20.57;;;12.10;99.90;;;;;;10362492;28;20229;-86
2021/10/30 12:43:22;;;;;;;22.43;20.23;;;12.10;99.90;;;;;;10374545;28;20233;-86
2021/10/30 12:48:27;;;;;;;25.20;22.67;;;12.10;99.90;;;;;;10365462;28;20241;-86
2021/10/30 12:53:34;;;;;;;24.50;22.10;;;12.10;99.90;;;;;;10366348;28;20411;-86
2021/10/30 12:58:38;;;;;;;24.60;22.10;;;12.20;99.90;;;;;;10373602;28;20321;-87
2021/10/30 13:03:41;;;;;;;24.13;21.80;;;12.20;99.90;;;;;;10366478;28;20229;-86
2021/10/30 13:08:51;;;;;;;25.30;22.57;;;12.20;99.90;;;;;;10387396;28;20636;-86
2021/10/30 13:13:56;;;;;;;25.57;22.63;;;12.20;99.90;;;;;;10364410;28;20756;-86
2021/10/30 13:18:58;;;;;;;25.57;23.07;;;12.20;99.90;;;;;;10350938;28;20285;-87
2021/10/30 13:24:02;;;;;;;24.47;22.07;;;12.20;99.90;;;;;;10356634;28;20234;-86
2021/10/30 13:29:05;;;;;;;25.67;23.23;;;12.20;99.90;;;;;;10363165;28;20237;-87
2021/10/30 13:34:07;;;;;;;25.60;23.20;;;12.20;99.90;;;;;;10387346;28;20221;-86
2021/10/30 13:39:11;;;;;;;26.37;23.83;;;12.20;99.90;;;;;;10359471;28;20225;-86
2021/10/30 13:44:13;;;;;;;33.20;29.70;;;12.20;99.90;;;;;;10365415;28;20254;-86
2021/10/30 13:49:16;;;;;;;29.57;26.47;;;12.20;99.90;;;;;;10374813;28;20218;-86
2021/10/30 13:54:20;;;;;;;27.90;25.20;;;12.10;99.90;;;;;;10356961;28;20202;-86
2021/10/30 13:59:22;;;;;;;27.37;24.70;;;12.20;99.90;;;;;;10357858;28;20769;-85
2021/10/30 14:04:24;;;;;;;24.90;22.60;;;12.20;99.90;;;;;;10371333;28;20287;-86
2021/10/30 14:09:28;;;;;;;25.17;22.77;;;12.20;99.90;;;;;;10376681;28;20229;-86
2021/10/30 14:14:31;;;;;;;25.43;23.03;;;12.30;99.90;;;;;;10393802;28;20581;-86
2021/10/30 14:19:33;;;;;;;27.10;24.20;;;12.30;99.90;;;;;;10364268;28;20695;-86
2021/10/30 14:24:36;;;;;;;26.90;24.50;;;12.30;99.90;;;;;;10386636;28;20253;-86
2021/10/30 14:29:39;;;;;;;30.13;25.40;;;12.40;99.90;;;;;;10373554;28;20230;-86
2021/10/30 14:34:41;;;;;;;27.47;24.97;;;12.50;99.90;;;;;;10381105;28;20214;-87
2021/10/30 14:39:45;;;;;;;26.10;23.70;;;12.50;99.90;;;;;;10381850;28;20646;-86
2021/10/30 14:44:48;;;;;;;24.83;22.73;;;12.50;99.90;;;;;;10394877;28;20214;-87
2021/10/30 14:49:50;;;;;;;21.77;19.30;;;12.50;99.90;;;;;;10388627;28;20228;-86
2021/10/30 14:54:54;;;;;;;20.07;18.17;;;12.60;99.90;;;;;;10394362;28;20211;-86
2021/10/30 14:59:56;;;;;;;20.70;18.60;;;12.60;99.90;;;;;;10362662;28;20687;-86
2021/10/30 15:04:58;;;;;;;20.30;18.50;;;12.70;99.90;;;;;;10356874;28;20237;-86
2021/10/30 15:10:02;;;;;;;21.27;19.30;;;12.80;99.90;;;;;;10374923;28;20237;-86
2021/10/30 15:15:08;;;;;;;21.97;19.97;;;12.80;99.90;;;;;;10375772;28;20607;-86
2021/10/30 15:20:12;;;;;;;23.80;21.40;;;12.80;99.90;;;;;;10379294;28;20254;-86
2021/10/30 15:25:15;;;;;;;22.03;20.00;;;12.90;99.90;;;;;;10399741;28;20226;-87
2021/10/30 15:30:18;;;;;;;22.00;19.80;;;12.80;99.90;;;;;;10381448;28;20229;-86
2021/10/30 15:35:21;;;;;;;17.67;16.07;;;12.90;99.90;;;;;;10373185;28;20201;-88
2021/10/30 15:40:24;;;;;;;15.77;14.27;;;12.90;99.90;;;;;;10372131;28;20329;-86
2021/10/30 15:45:27;;;;;;;15.00;13.20;;;12.80;99.90;;;;;;10362749;28;20322;-86
2021/10/30 15:50:29;;;;;;;14.33;13.13;;;12.80;99.90;;;;;;10369389;28;20291;-86
2021/10/30 15:55:33;;;;;;;15.67;14.10;;;12.70;99.90;;;;;;10362694;28;20215;-86
2021/10/30 16:00:36;;;;;;;14.50;13.20;;;12.60;99.90;;;;;;10372910;28;20307;-86
2021/10/30 16:05:38;;;;;;;15.90;14.30;;;12.60;99.90;;;;;;10376947;28;20233;-86
2021/10/30 16:10:42;;;;;;;15.13;13.50;;;12.50;99.90;;;;;;10366634;28;20288;-86
2021/10/30 16:15:44;;;;;;;13.70;12.60;;;12.50;99.90;;;;;;10373022;28;20202;-85
2021/10/30 16:20:46;;;;;;;14.93;13.47;;;12.50;99.90;;;;;;10376669;28;20724;-85
2021/10/30 16:25:50;;;;;;;16.40;14.80;;;12.50;99.90;;;;;;10374795;28;20233;-85
2021/10/30 16:30:53;;;;;;;16.47;14.87;;;12.50;99.90;;;;;;10372042;28;20233;-86
2021/10/30 16:35:56;;;;;;;16.27;14.87;;;12.50;99.90;;;;;;10359492;28;20213;-87
2021/10/30 16:40:59;;;;;;;17.47;15.03;;;12.40;99.90;;;;;;10390454;28;20245;-87
2021/10/30 16:46:02;;;;;;;16.17;14.43;;;12.30;99.90;;;;;;10371240;28;20222;-85
2021/10/30 16:51:04;;;;;;;15.77;14.37;;;12.30;99.90;;;;;;10359966;28;20238;-85
2021/10/30 16:56:08;;;;;;;16.67;15.07;;;12.30;99.90;;;;;;10352036;28;20212;-87
2021/10/30 17:01:11;;;;;;;16.00;14.47;;;12.30;99.90;;;;;;10355785;28;20225;-85
2021/10/30 17:06:13;;;;;;;18.67;16.77;;;12.30;99.90;;;;;;10359382;28;20260;-85
2021/10/30 17:11:17;;;;;;;18.50;16.53;;;12.30;99.90;;;;;;10367181;28;20238;-86
2021/10/30 17:16:19;;;;;;;22.83;20.53;;;12.20;99.90;;;;;;10387592;28;20222;-86
2021/10/30 17:21:22;;;;;;;26.67;24.00;;;12.20;99.90;;;;;;10383912;28;20237;-87
2021/10/30 17:26:26;;;;;;;20.43;18.40;;;12.20;99.90;;;;;;10394471;28;20233;-87
2021/10/30 17:31:28;;;;;;;18.10;16.30;;;12.20;99.90;;;;;;10400868;28;20233;-85
2021/10/30 17:36:30;;;;;;;18.50;16.60;;;12.20;99.90;;;;;;10399528;28;20210;-87
2021/10/30 17:41:37;;;;;;;16.57;15.00;;;12.20;99.90;;;;;;10393977;28;20276;-86
2021/10/30 17:46:39;;;;;;;17.60;16.00;;;12.20;99.90;;;;;;10373766;28;20230;-87
2021/10/30 17:52:22;;;;;;;18.00;16.20;;;12.20;99.90;;;;;;10393439;28;20232;-86
2021/10/30 17:57:25;;;;;;;15.73;14.43;;;12.20;99.90;;;;;;10410132;28;20208;-87
2021/10/30 18:02:28;;;;;;;17.93;16.20;;;12.20;99.90;;;;;;10386443;28;20689;-87
2021/10/30 18:07:30;;;;;;;16.90;15.30;;;12.20;99.90;;;;;;10342734;28;20226;-87
2021/10/30 18:12:36;;;;;;;15.23;13.93;;;12.20;99.90;;;;;;10388150;28;20295;-87
2021/10/30 18:17:38;;;;;;;16.63;15.07;;;12.30;99.90;;;;;;10388806;28;20301;-88
2021/10/30 18:22:41;;;;;;;19.10;17.40;;;12.30;99.90;;;;;;10392019;28;20236;-87
2021/10/30 18:27:45;;;;;;;16.33;14.83;;;12.30;99.90;;;;;;10388989;28;20237;-86
2021/10/30 18:32:47;;;;;;;15.27;13.87;;;12.40;99.90;;;;;;10368720;28;20198;-86
2021/10/30 18:37:49;;;;;;;15.80;14.20;;;12.40;99.90;;;;;;10372927;28;20566;-87
2021/10/30 18:42:54;;;;;;;15.10;13.67;;;12.40;99.90;;;;;;10379917;28;20218;-87
2021/10/30 18:47:57;;;;;;;14.37;12.97;;;12.40;99.90;;;;;;10386294;28;20225;-84
2021/10/30 18:52:59;;;;;;;15.13;13.00;;;12.50;99.90;;;;;;10409808;28;20217;-84
2021/10/30 18:58:03;;;;;;;15.23;13.60;;;12.50;99.90;;;;;;10343889;28;20311;-83
2021/10/30 19:03:05;;;;;;;15.50;14.00;;;12.60;99.90;;;;;;10370629;28;20208;-83
2021/10/30 19:08:08;;;;;;;12.10;11.00;;;12.60;99.90;;;;;;10388844;28;20245;-83
2021/10/30 19:13:11;;;;;;;9.40;8.50;;;12.60;99.90;;;;;;10345584;28;20301;-84
2021/10/30 19:18:13;;;;;;;9.53;8.70;;;12.70;99.90;;;;;;10401067;28;20663;-85
2021/10/30 19:23:15;;;;;;;9.30;8.50;;;12.80;99.90;;;;;;10377376;28;20202;-84
2021/10/30 19:28:19;;;;;;;9.60;8.60;;;12.80;99.90;;;;;;10389815;28;20217;-84
2021/10/30 19:33:21;;;;;;;10.10;9.10;;;12.90;99.90;;;;;;10368645;28;20844;-84
2021/10/30 19:38:23;;;;;;;10.17;9.17;;;12.90;99.90;;;;;;10370276;28;20776;-83
2021/10/30 19:43:27;;;;;;;9.97;9.07;;;13.00;99.90;;;;;;10375305;28;20211;-85
2021/10/30 19:48:29;;;;;;;8.43;7.73;;;13.00;99.90;;;;;;10392257;28;20237;-85
2021/10/30 19:53:32;;;;;;;8.53;7.67;;;13.00;99.90;;;;;;10405891;28;20207;-83
2021/10/30 19:58:35;;;;;;;8.80;8.00;;;13.10;99.90;;;;;;10395431;28;20211;-84
2021/10/30 20:03:38;;;;;;;8.83;7.73;;;13.00;99.90;;;;;;10398799;28;20219;-84
2021/10/30 20:08:40;;;;;;;7.87;7.27;;;13.10;99.90;;;;;;10410242;28;20660;-84
2021/10/30 20:13:44;;;;;;;7.73;6.97;;;13.10;99.90;;;;;;10387977;28;20615;-85
2021/10/30 20:18:46;;;;;;;6.60;6.10;;;13.10;99.90;;;;;;10432070;28;20217;-83
2021/10/30 20:23:48;;;;;;;6.20;5.60;;;13.10;99.90;;;;;;10391151;28;20643;-86
2021/10/30 20:28:52;;;;;;;6.47;5.97;;;13.20;99.90;;;;;;10412611;28;20222;-84
2021/10/30 20:33:54;;;;;;;6.87;6.27;;;13.30;99.90;;;;;;10410385;28;20297;-86
2021/10/30 20:38:57;;;;;;;7.80;7.10;;;13.30;99.90;;;;;;10407775;28;20548;-85
2021/10/30 20:44:01;;;;;;;6.30;5.80;;;13.40;99.90;;;;;;10388973;28;20222;-86
2021/10/30 20:49:04;;;;;;;5.20;4.90;;;13.40;99.90;;;;;;10394480;28;20565;-85
2021/10/30 20:54:06;;;;;;;4.90;4.50;;;13.40;99.90;;;;;;10369028;28;20211;-84
2021/10/30 20:59:10;;;;;;;6.10;5.60;;;13.40;99.90;;;;;;10392669;28;20232;-85
2021/10/30 21:04:13;;;;;;;5.30;4.80;;;13.50;99.90;;;;;;10397333;28;20249;-85
2021/10/30 21:09:15;;;;;;;4.90;4.50;;;13.50;99.90;;;;;;10402434;28;20225;-83
2021/10/30 21:14:18;;;;;;;4.43;4.13;;;13.50;99.90;;;;;;10383974;28;20210;-84
2021/10/30 21:19:21;;;;;;;4.13;3.90;;;13.50;99.90;;;;;;10388598;28;20217;-84
2021/10/30 21:24:23;;;;;;;4.80;4.40;;;13.50;99.90;;;;;;10393594;28;20291;-84
2021/10/30 21:29:26;;;;;;;4.80;4.40;;;13.50;99.90;;;;;;10377014;28;20272;-84
2021/10/30 21:34:28;;;;;;;4.67;4.27;;;13.50;99.90;;;;;;10390787;28;20663;-84
2021/10/30 21:39:32;;;;;;;6.30;5.70;;;13.50;99.90;;;;;;10381625;28;20308;-83
2021/10/30 21:44:35;;;;;;;7.90;5.00;;;13.60;99.90;;;;;;10374232;28;20222;-83
2021/10/30 21:49:37;;;;;;;5.23;4.73;;;13.60;99.90;;;;;;10371297;28;20614;-84
2021/10/30 21:54:40;;;;;;;4.13;3.83;;;13.60;99.90;;;;;;10364741;28;20208;-84
2021/10/30 21:59:43;;;;;;;4.33;3.93;;;13.60;99.90;;;;;;10375444;28;20226;-83
2021/10/30 22:04:45;;;;;;;3.97;3.57;;;13.60;99.90;;;;;;10388832;28;20218;-84
2021/10/30 22:09:48;;;;;;;3.90;3.60;;;13.70;99.90;;;;;;10370616;28;20253;-83
2021/10/30 22:14:52;;;;;;;4.80;4.40;;;13.70;99.90;;;;;;10375876;28;20194;-83
2021/10/30 22:19:54;;;;;;;4.10;3.80;;;13.70;99.90;;;;;;10357380;28;20279;-83
2021/10/30 22:24:56;;;;;;;3.63;3.43;;;13.70;99.90;;;;;;10382502;28;20690;-84
2021/10/30 22:30:00;;;;;;;3.50;3.30;;;13.70;99.90;;;;;;10378240;28;20223;-83
2021/10/30 22:35:03;;;;;;;3.50;3.20;;;13.80;99.90;;;;;;10343263;28;20194;-83
2021/10/30 22:40:06;;;;;;;3.33;3.13;;;13.80;99.90;;;;;;10397987;28;20253;-82
2021/10/30 22:45:11;;;;;;;3.97;3.67;;;13.80;99.90;;;;;;10391713;28;20229;-82
2021/10/30 22:50:13;;;;;;;3.67;3.30;;;13.70;99.90;;;;;;10379463;28;20236;-83
2021/10/30 22:55:15;;;;;;;2.90;2.70;;;13.70;99.90;;;;;;10405997;28;20202;-82
2021/10/30 23:00:21;;;;;;;3.60;3.30;;;13.70;99.90;;;;;;10405341;28;20235;-83
2021/10/30 23:05:23;;;;;;;4.27;3.97;;;13.60;99.90;;;;;;10384098;28;20650;-83
2021/10/30 23:10:26;;;;;;;3.50;3.30;;;13.60;99.90;;;;;;10410502;22;20514;-82
2021/10/30 23:15:29;;;;;;;3.60;3.30;;;13.50;99.90;;;;;;10410528;28;20202;-82
2021/10/30 23:20:32;;;;;;;3.03;2.83;;;13.50;99.90;;;;;;10410363;28;20226;-82
2021/10/30 23:25:34;;;;;;;4.13;2.70;;;13.50;99.90;;;;;;10423332;28;20743;-82
2021/10/30 23:30:39;;;;;;;3.03;2.83;;;13.60;99.90;;;;;;10401343;28;20230;-82
2021/10/30 23:35:42;;;;;;;3.30;3.10;;;13.70;99.90;;;;;;10384196;28;20209;-82
2021/10/30 23:40:44;;;;;;;3.00;2.80;;;13.80;99.90;;;;;;10416819;28;20218;-82
2021/10/30 23:45:47;;;;;;;3.30;3.10;;;13.80;99.90;;;;;;10415269;28;20221;-82
2021/10/30 23:50:49;;;;;;;3.30;3.07;;;13.90;99.90;;;;;;10397062;28;20257;-82
2021/10/30 23:55:51;;;;;;;3.17;2.97;;;14.00;99.90;;;;;;10421341;28;20232;-82
